Decoded Metar for UGSB (BATUMI in GEORGIA) (IATA:N/A) | Meteo·Mobile Aviation Weather
aviador You're here:

UGSB Decoded Metar

BATUMI in GEORGIA
Report Time2019-01-18 13:30:00
UTC Time2019-01-18 13:58:32
Flight Rules vfr VFR
WindCalm
Visibility9999 m
Phenomena:N/A
Clouds:Few 032 Hf
Expected CloudBase > 2,400 ft AGL from Temp-Dew spread
CeilingNone
Temp08°C (ISA -7)
Dew Point02°C (66% RH)
AAT6.3°C
QNH1024 hPa
Density Alt-984 ft
Elevation105 ft
Report Wrong Elevation
Raw Report
METAR UGSB 181330Z 00000KT 9999 FEW032 08/02 Q1024 NOSIG=

Extra information for UGSB:More info

Metar Taf Metar & Taf Last 4 Metars F.Rules Stats Wind Profile Meteogram Temp Stats Airport Information Weather charts Add Link Nearby VenuesMetar ALERT Operation Metar Decoded Social comments